Time;durP1;ratioP1;P1;durP2;ratioP2;P2;SDS_P1;SDS_P2;PMS_P1;PMS_P2;Temp;Humidity;BMP_temperature;BMP_pressure;BME280_temperature;BME280_humidity;BME280_pressure;Samples;Min_cycle;Max_cycle;Signal;HPM_P1;HPM_P2
2021/04/07 00:00:27;;;;;;;2.20;1.20;;;22.70;28.00;;;;;;5009564;28;20210;-60
2021/04/07 00:02:53;;;;;;;1.87;0.93;;;22.70;28.00;;;;;;5010960;28;20202;-60
2021/04/07 00:05:19;;;;;;;1.20;1.00;;;22.70;28.00;;;;;;5009020;28;20667;-60
2021/04/07 00:07:48;;;;;;;2.47;1.00;;;22.70;28.00;;;;;;5009176;28;20226;-60
2021/04/07 00:10:14;;;;;;;1.83;1.10;;;22.60;27.70;;;;;;5009462;28;20523;-61
2021/04/07 00:12:40;;;;;;;2.17;1.00;;;22.60;27.70;;;;;;5009220;28;20221;-60
2021/04/07 00:15:06;;;;;;;1.37;1.00;;;22.60;27.80;;;;;;5010512;28;20653;-60
2021/04/07 00:17:32;;;;;;;2.30;1.47;;;22.60;27.70;;;;;;5004291;28;20226;-60
2021/04/07 00:19:58;;;;;;;1.70;0.90;;;22.60;27.70;;;;;;4998958;28;20205;-60
2021/04/07 00:22:24;;;;;;;1.37;1.10;;;22.60;27.70;;;;;;5010402;28;20198;-61
2021/04/07 00:24:49;;;;;;;3.33;1.00;;;22.60;27.70;;;;;;5009160;28;20214;-61
2021/04/07 00:27:17;;;;;;;1.70;1.60;;;22.60;27.70;;;;;;5011841;28;20225;-60
2021/04/07 00:29:43;;;;;;;1.52;1.00;;;22.60;27.70;;;;;;5015128;28;20216;-61
2021/04/07 00:32:09;;;;;;;1.10;1.00;;;22.60;27.70;;;;;;5016261;28;20226;-61
2021/04/07 00:34:35;;;;;;;1.20;1.10;;;22.60;27.80;;;;;;5016118;28;20677;-61
2021/04/07 00:37:01;;;;;;;1.30;1.20;;;22.60;27.70;;;;;;5016493;28;20222;-60
2021/04/07 00:39:27;;;;;;;2.30;1.40;;;22.60;27.70;;;;;;5015199;28;20213;-60
2021/04/07 00:41:53;;;;;;;1.23;1.10;;;22.60;27.70;;;;;;5014902;28;20208;-61
2021/04/07 00:44:19;;;;;;;1.10;0.90;;;22.60;27.70;;;;;;5016163;28;20244;-60
2021/04/07 00:46:45;;;;;;;1.90;1.33;;;22.60;27.80;;;;;;5016486;28;20696;-60
2021/04/07 00:49:11;;;;;;;1.73;1.30;;;22.60;27.70;;;;;;5014736;28;20214;-61
2021/04/07 00:51:37;;;;;;;1.00;1.00;;;22.60;27.70;;;;;;5015686;28;20308;-61
2021/04/07 00:54:03;;;;;;;1.73;1.13;;;22.60;27.70;;;;;;5014953;28;20210;-61
2021/04/07 00:56:29;;;;;;;1.37;1.10;;;22.60;27.80;;;;;;5015441;28;20697;-60
2021/04/07 00:58:54;;;;;;;1.20;1.03;;;22.60;27.80;;;;;;5016291;28;20516;-61
2021/04/07 01:01:20;;;;;;;2.33;1.00;;;22.70;27.80;;;;;;5015285;28;20286;-61
2021/04/07 01:03:46;;;;;;;1.00;0.90;;;22.60;27.70;;;;;;5015261;28;20256;-61
2021/04/07 01:06:12;;;;;;;1.90;1.03;;;22.60;27.80;;;;;;5014666;28;20588;-61
2021/04/07 01:08:38;;;;;;;0.97;0.97;;;22.60;27.70;;;;;;5014515;28;20231;-61
2021/04/07 01:11:04;;;;;;;1.20;0.90;;;22.60;27.70;;;;;;5014979;28;20321;-60
2021/04/07 01:13:30;;;;;;;1.47;0.90;;;22.60;27.70;;;;;;5015083;28;20234;-61
2021/04/07 01:15:56;;;;;;;1.50;0.90;;;22.60;27.70;;;;;;5016582;28;20222;-61
2021/04/07 01:18:22;;;;;;;1.40;1.00;;;22.60;27.70;;;;;;5015355;28;20272;-60
2021/04/07 01:20:48;;;;;;;1.10;1.00;;;22.60;27.70;;;;;;5014689;28;20206;-60
2021/04/07 01:23:14;;;;;;;1.63;1.10;;;22.60;27.80;;;;;;5015035;28;20715;-60
2021/04/07 01:25:40;;;;;;;0.90;0.90;;;22.60;27.80;;;;;;5015982;28;20198;-60
2021/04/07 01:28:06;;;;;;;0.97;0.87;;;22.60;27.80;;;;;;5015731;28;20206;-61
2021/04/07 01:30:45;;;;;;;1.17;1.10;;;22.60;27.70;;;;;;5015523;28;20209;-60
2021/04/07 01:33:11;;;;;;;1.17;1.10;;;22.60;27.90;;;;;;5009344;28;20268;-61
2021/04/07 01:35:37;;;;;;;1.83;1.20;;;22.60;27.70;;;;;;5012418;28;20222;-60
2021/04/07 01:38:03;;;;;;;0.97;0.87;;;22.50;27.70;;;;;;5012021;28;20207;-59
2021/04/07 01:40:29;;;;;;;1.30;1.20;;;22.60;28.10;;;;;;5012329;28;20564;-60
2021/04/07 01:42:55;;;;;;;1.70;1.00;;;22.50;28.10;;;;;;5011977;28;20206;-60
2021/04/07 01:45:21;;;;;;;2.20;1.20;;;22.50;28.20;;;;;;5012928;28;20206;-60
2021/04/07 01:47:47;;;;;;;2.13;0.90;;;22.60;28.20;;;;;;5011828;28;20329;-60
2021/04/07 01:50:13;;;;;;;1.17;0.97;;;22.60;28.20;;;;;;5012614;28;20748;-60
2021/04/07 01:52:39;;;;;;;1.07;0.90;;;22.50;28.20;;;;;;5011966;28;20280;-60
2021/04/07 01:55:05;;;;;;;2.27;0.90;;;22.60;28.20;;;;;;5012552;28;20211;-60
2021/04/07 01:57:31;;;;;;;3.43;1.83;;;22.60;28.20;;;;;;5011885;28;20230;-60
2021/04/07 01:59:57;;;;;;;1.13;0.90;;;22.60;28.20;;;;;;5012175;28;20207;-60
2021/04/07 02:02:23;;;;;;;1.10;1.00;;;22.60;28.20;;;;;;5011785;28;20210;-60
2021/04/07 02:04:48;;;;;;;1.33;1.00;;;22.60;28.20;;;;;;5011826;28;20202;-60
2021/04/07 02:07:14;;;;;;;1.20;1.10;;;22.60;28.10;;;;;;5012452;28;20562;-60
2021/04/07 02:09:40;;;;;;;1.83;0.90;;;22.60;28.10;;;;;;5003183;28;20204;-59
2021/04/07 02:12:06;;;;;;;1.47;0.90;;;22.60;28.10;;;;;;5010994;28;20234;-60
2021/04/07 02:14:32;;;;;;;1.70;0.90;;;22.60;28.10;;;;;;5010649;28;20203;-60
2021/04/07 02:16:58;;;;;;;1.63;0.97;;;22.60;28.10;;;;;;5011138;28;20242;-60
2021/04/07 02:19:24;;;;;;;1.03;0.93;;;22.60;28.10;;;;;;5011355;28;20209;-60
2021/04/07 02:21:50;;;;;;;1.33;1.03;;;22.60;28.10;;;;;;5011917;28;20583;-60
2021/04/07 02:24:16;;;;;;;1.63;1.00;;;22.60;28.10;;;;;;5010586;28;20206;-60
2021/04/07 02:26:42;;;;;;;1.47;1.10;;;22.60;28.10;;;;;;5011491;28;20223;-60
2021/04/07 02:29:08;;;;;;;1.20;1.10;;;22.60;28.10;;;;;;5011299;28;20280;-60
2021/04/07 02:31:34;;;;;;;1.20;1.00;;;22.60;28.00;;;;;;5011773;28;20199;-60
2021/04/07 02:34:00;;;;;;;2.30;1.10;;;22.60;28.10;;;;;;5007515;28;20206;-60
2021/04/07 02:36:26;;;;;;;1.20;0.90;;;22.60;28.20;;;;;;5006562;28;20254;-60
2021/04/07 02:38:52;;;;;;;0.90;0.90;;;22.60;28.20;;;;;;5011048;28;20213;-60
2021/04/07 02:41:18;;;;;;;1.80;1.30;;;22.60;28.20;;;;;;5011591;28;20601;-60
2021/04/07 02:43:44;;;;;;;1.20;1.10;;;22.60;28.10;;;;;;5011097;28;20207;-60
2021/04/07 02:46:10;;;;;;;1.00;1.00;;;22.50;28.10;;;;;;5012256;28;20237;-60
2021/04/07 02:48:36;;;;;;;1.30;0.97;;;22.50;28.10;;;;;;5011319;28;20569;-60
2021/04/07 02:51:02;;;;;;;1.13;0.97;;;22.50;28.20;;;;;;5010360;28;20214;-60
2021/04/07 02:53:28;;;;;;;1.10;1.00;;;22.50;28.20;;;;;;5011385;28;20288;-60
2021/04/07 02:55:54;;;;;;;1.20;1.10;;;22.50;28.10;;;;;;5011693;28;20240;-60
2021/04/07 02:58:19;;;;;;;0.93;0.90;;;22.50;28.00;;;;;;5010112;28;20196;-60
2021/04/07 03:00:45;;;;;;;0.80;0.80;;;22.50;28.00;;;;;;5010070;28;20205;-60
2021/04/07 03:03:11;;;;;;;1.20;1.00;;;22.50;28.00;;;;;;5010470;28;20210;-60
2021/04/07 03:05:37;;;;;;;1.40;1.10;;;22.50;28.00;;;;;;5010870;28;20241;-60
2021/04/07 03:08:03;;;;;;;1.67;1.00;;;22.50;28.00;;;;;;5011428;28;20678;-60
2021/04/07 03:10:29;;;;;;;1.17;0.97;;;22.50;27.70;;;;;;5009304;28;20203;-60
2021/04/07 03:12:55;;;;;;;1.23;1.03;;;22.50;27.70;;;;;;5010147;28;20241;-60
2021/04/07 03:15:21;;;;;;;1.67;1.10;;;22.50;27.70;;;;;;5009349;28;20222;-61
2021/04/07 03:17:47;;;;;;;1.00;1.00;;;22.50;27.70;;;;;;5010829;28;20210;-61
2021/04/07 03:20:13;;;;;;;1.00;1.00;;;22.50;27.70;;;;;;5010615;28;20289;-61
2021/04/07 03:22:39;;;;;;;1.10;1.00;;;22.50;27.70;;;;;;5010628;28;20210;-61
2021/04/07 03:25:05;;;;;;;2.53;0.90;;;22.50;27.70;;;;;;5010677;28;20218;-61
2021/04/07 03:27:31;;;;;;;1.07;0.90;;;22.60;27.80;;;;;;5008177;28;20681;-61
2021/04/07 03:29:59;;;;;;;0.80;0.80;;;22.50;27.70;;;;;;5006625;28;20335;-60
2021/04/07 03:32:25;;;;;;;1.93;1.00;;;22.50;27.70;;;;;;5005762;28;20226;-60
2021/04/07 03:34:51;;;;;;;1.00;1.00;;;22.50;27.70;;;;;;5010014;28;20228;-60
2021/04/07 03:37:17;;;;;;;1.10;1.00;;;22.50;27.70;;;;;;5010746;28;20214;-60
2021/04/07 03:39:43;;;;;;;1.30;0.97;;;22.50;28.00;;;;;;5008030;28;20217;-60
2021/04/07 03:42:08;;;;;;;1.00;1.00;;;22.50;28.10;;;;;;5010626;28;20275;-60
2021/04/07 03:44:34;;;;;;;2.17;1.10;;;22.50;28.00;;;;;;5010358;28;20206;-60
2021/04/07 03:47:00;;;;;;;2.73;1.00;;;22.50;28.20;;;;;;5010618;28;20553;-60
2021/04/07 03:49:26;;;;;;;1.50;1.00;;;22.50;27.70;;;;;;5009983;28;20254;-60
2021/04/07 03:51:52;;;;;;;1.23;0.97;;;22.50;27.70;;;;;;5010041;28;20222;-60
2021/04/07 03:54:18;;;;;;;0.90;0.90;;;22.50;27.70;;;;;;5008833;28;20323;-60
2021/04/07 03:56:44;;;;;;;2.10;1.00;;;22.50;27.70;;;;;;5006042;28;20896;-60
2021/04/07 03:59:10;;;;;;;1.70;0.97;;;22.50;27.70;;;;;;5000270;28;20233;-58
2021/04/07 04:01:36;;;;;;;1.43;1.00;;;22.50;27.70;;;;;;5009293;28;20206;-60
2021/04/07 04:04:02;;;;;;;1.33;0.97;;;22.50;27.70;;;;;;5008873;28;20213;-60
2021/04/07 04:06:28;;;;;;;0.87;0.87;;;22.50;27.70;;;;;;5009455;28;20577;-61
2021/04/07 04:08:54;;;;;;;1.00;0.90;;;22.50;27.70;;;;;;5008631;28;20218;-60
2021/04/07 04:11:20;;;;;;;1.07;0.90;;;22.50;27.70;;;;;;5010130;28;20608;-60
2021/04/07 04:13:46;;;;;;;1.10;1.00;;;22.50;27.70;;;;;;5009382;28;20239;-61
2021/04/07 04:16:12;;;;;;;1.10;0.93;;;22.50;27.70;;;;;;4999991;28;20595;-61
2021/04/07 04:18:38;;;;;;;1.53;0.97;;;22.50;27.70;;;;;;4997950;28;20213;-61
2021/04/07 04:21:04;;;;;;;0.80;0.80;;;22.50;27.50;;;;;;5008929;28;20304;-61
2021/04/07 04:23:30;;;;;;;1.20;1.10;;;22.50;27.50;;;;;;5010650;28;20255;-60
2021/04/07 04:25:56;;;;;;;1.10;1.00;;;22.50;27.40;;;;;;5008641;28;20580;-61
2021/04/07 04:28:22;;;;;;;1.00;1.00;;;22.50;27.40;;;;;;5010564;28;20280;-60
2021/04/07 04:30:47;;;;;;;1.67;1.00;;;22.50;27.40;;;;;;5008992;28;20209;-60
2021/04/07 04:33:13;;;;;;;1.20;1.00;;;22.50;27.30;;;;;;5010140;28;20242;-60
2021/04/07 04:35:39;;;;;;;2.07;0.90;;;22.50;27.20;;;;;;5008688;28;20642;-60
2021/04/07 04:38:05;;;;;;;1.03;1.00;;;22.50;27.20;;;;;;5008300;28;20285;-61
2021/04/07 04:40:31;;;;;;;1.10;1.00;;;22.50;27.10;;;;;;5009676;28;20234;-60
2021/04/07 04:42:57;;;;;;;1.53;1.20;;;22.50;27.00;;;;;;5007975;28;20284;-61
2021/04/07 04:45:23;;;;;;;0.97;0.90;;;22.50;27.10;;;;;;5010078;28;20671;-61
2021/04/07 04:47:49;;;;;;;1.63;1.00;;;22.50;27.10;;;;;;5008396;28;20253;-60
2021/04/07 04:50:15;;;;;;;1.50;0.90;;;22.50;27.00;;;;;;5009167;28;20206;-60
2021/04/07 04:52:41;;;;;;;0.90;0.90;;;22.40;27.00;;;;;;5009656;28;20702;-60
2021/04/07 04:55:07;;;;;;;1.63;0.90;;;22.40;26.90;;;;;;5008434;28;20227;-60
2021/04/07 04:57:33;;;;;;;1.10;1.10;;;22.40;26.90;;;;;;5009272;28;20214;-60
2021/04/07 04:59:59;;;;;;;1.10;1.00;;;22.50;26.90;;;;;;5008775;28;20198;-60
2021/04/07 05:02:25;;;;;;;1.53;1.07;;;22.40;26.90;;;;;;5009577;28;20216;-58
2021/04/07 05:04:51;;;;;;;1.07;0.90;;;22.40;26.80;;;;;;5009158;28;20220;-58
2021/04/07 05:07:17;;;;;;;0.70;0.70;;;22.40;26.80;;;;;;5008209;28;20640;-59
2021/04/07 05:09:43;;;;;;;1.83;1.00;;;22.40;26.80;;;;;;5008942;28;20214;-59
2021/04/07 05:12:09;;;;;;;1.60;0.97;;;22.40;27.60;;;;;;5010008;28;20233;-59
2021/04/07 05:14:35;;;;;;;0.93;0.83;;;22.40;27.40;;;;;;5010373;28;20217;-59
2021/04/07 05:17:01;;;;;;;1.53;0.93;;;22.40;27.40;;;;;;5013124;28;20230;-59
2021/04/07 05:19:27;;;;;;;1.80;0.90;;;22.40;27.40;;;;;;5011924;28;20557;-59
2021/04/07 05:21:53;;;;;;;1.33;1.00;;;22.40;27.60;;;;;;5013103;28;20226;-60
2021/04/07 05:24:18;;;;;;;3.40;1.00;;;22.40;27.40;;;;;;5012234;28;20216;-59
2021/04/07 05:26:44;;;;;;;1.17;1.00;;;22.50;27.60;;;;;;5006883;28;20240;-60
2021/04/07 05:29:10;;;;;;;0.80;0.80;;;22.40;27.60;;;;;;5013692;28;20659;-59
2021/04/07 05:31:36;;;;;;;0.80;0.80;;;22.40;27.50;;;;;;5012604;28;20203;-59
2021/04/07 05:34:02;;;;;;;1.80;1.00;;;22.50;27.50;;;;;;5012023;28;20337;-59
2021/04/07 05:36:28;;;;;;;1.20;0.90;;;22.40;27.60;;;;;;5012194;28;20234;-59
2021/04/07 05:38:54;;;;;;;1.33;0.80;;;22.40;27.50;;;;;;5012330;28;20673;-59
2021/04/07 05:41:20;;;;;;;1.93;0.80;;;22.50;27.50;;;;;;5012566;28;20199;-59
2021/04/07 05:43:46;;;;;;;1.20;1.10;;;22.50;27.50;;;;;;5012565;28;20213;-59
2021/04/07 05:46:13;;;;;;;3.03;1.30;;;22.50;27.40;;;;;;5012790;28;20292;-59
2021/04/07 05:48:39;;;;;;;1.07;1.00;;;22.50;27.40;;;;;;5012456;28;20240;-59
2021/04/07 05:51:05;;;;;;;1.27;0.83;;;22.50;27.50;;;;;;5011836;28;20203;-59
2021/04/07 05:53:30;;;;;;;0.97;0.93;;;22.50;27.40;;;;;;5012594;28;20233;-59
2021/04/07 05:55:56;;;;;;;1.00;0.80;;;22.50;27.40;;;;;;5012268;28;20733;-59
2021/04/07 05:58:22;;;;;;;1.53;0.90;;;22.50;27.40;;;;;;5012088;28;20206;-60
2021/04/07 06:00:48;;;;;;;0.90;0.90;;;22.50;27.40;;;;;;5011995;28;20210;-60
2021/04/07 06:03:14;;;;;;;1.30;1.20;;;22.50;27.50;;;;;;5011840;28;20233;-60
2021/04/07 06:05:40;;;;;;;1.40;1.10;;;22.50;27.50;;;;;;5011383;28;20280;-59
2021/04/07 06:08:06;;;;;;;1.40;0.87;;;22.50;27.50;;;;;;5010387;28;20558;-59
2021/04/07 06:10:32;;;;;;;1.40;0.80;;;22.50;27.40;;;;;;5012076;28;20214;-59
2021/04/07 06:12:58;;;;;;;1.30;1.00;;;22.50;27.40;;;;;;5011773;28;20638;-60
2021/04/07 06:15:24;;;;;;;1.27;0.90;;;22.50;27.50;;;;;;5012109;28;20222;-60
2021/04/07 06:17:54;;;;;;;0.80;0.80;;;22.50;27.50;;;;;;5001333;28;20211;-60
2021/04/07 06:20:20;;;;;;;1.10;1.00;;;22.40;27.80;;;;;;5009516;28;20207;-60
2021/04/07 06:22:45;;;;;;;0.87;0.87;;;22.50;27.70;;;;;;5011546;28;20261;-60
2021/04/07 06:25:11;;;;;;;0.90;0.90;;;22.40;27.60;;;;;;5010875;28;20225;-60
2021/04/07 06:27:37;;;;;;;1.27;0.90;;;22.40;27.60;;;;;;5010649;28;20203;-60
2021/04/07 06:30:03;;;;;;;1.30;1.00;;;22.40;27.40;;;;;;5012036;28;20202;-60
2021/04/07 06:32:29;;;;;;;0.87;0.87;;;22.50;27.70;;;;;;5011556;28;20238;-60
2021/04/07 06:34:55;;;;;;;1.80;0.90;;;22.40;27.60;;;;;;5011139;28;20230;-60
2021/04/07 06:37:21;;;;;;;1.10;0.83;;;22.50;27.60;;;;;;5012095;28;20726;-60
2021/04/07 06:39:47;;;;;;;1.00;0.90;;;22.50;27.60;;;;;;5010142;28;20224;-60
2021/04/07 06:42:13;;;;;;;1.10;0.90;;;22.50;27.40;;;;;;5010868;28;20218;-60
2021/04/07 06:44:39;;;;;;;1.33;0.87;;;22.50;27.40;;;;;;5012118;28;20321;-60
2021/04/07 06:47:05;;;;;;;1.97;0.90;;;22.50;27.40;;;;;;5011116;28;20614;-59
2021/04/07 06:49:31;;;;;;;1.23;0.97;;;22.50;27.40;;;;;;5010049;28;20273;-60
2021/04/07 06:51:57;;;;;;;1.10;1.00;;;22.50;27.40;;;;;;5011225;28;20199;-60
2021/04/07 06:54:23;;;;;;;0.70;0.70;;;22.50;27.30;;;;;;5010732;28;20308;-60
2021/04/07 06:56:49;;;;;;;1.30;0.80;;;22.50;27.40;;;;;;5011022;28;20683;-60
2021/04/07 06:59:15;;;;;;;1.77;1.00;;;22.50;27.30;;;;;;5010959;28;20221;-59
2021/04/07 07:01:41;;;;;;;1.10;0.90;;;22.50;27.20;;;;;;5011029;28;20650;-60
2021/04/07 07:04:07;;;;;;;0.80;0.80;;;22.50;27.20;;;;;;5010592;28;20229;-60
2021/04/07 07:06:33;;;;;;;0.93;0.90;;;22.50;27.20;;;;;;5009850;28;20203;-60
2021/04/07 07:08:59;;;;;;;2.20;0.90;;;22.50;27.20;;;;;;4996120;28;20226;-59
2021/04/07 07:11:25;;;;;;;2.57;1.03;;;22.50;27.70;;;;;;5005046;28;20825;-60
2021/04/07 07:13:51;;;;;;;4.07;1.20;;;22.50;27.90;;;;;;4990830;28;20242;-61
2021/04/07 07:16:17;;;;;;;3.87;1.03;;;22.50;28.30;;;;;;4993045;28;20234;-60
2021/04/07 07:18:43;;;;;;;2.83;1.10;;;22.50;28.50;;;;;;5011789;28;20294;-61
2021/04/07 07:21:08;;;;;;;1.57;1.00;;;22.50;28.70;;;;;;5006819;28;20213;-59
2021/04/07 07:23:35;;;;;;;5.00;1.40;;;22.50;28.70;;;;;;5008913;28;20225;-58
2021/04/07 07:26:01;;;;;;;4.93;1.50;;;22.50;28.90;;;;;;4999086;28;20227;-61
2021/04/07 07:28:27;;;;;;;4.77;1.90;;;22.50;29.20;;;;;;4991462;28;20218;-71
2021/04/07 07:30:53;;;;;;;2.33;1.97;;;22.50;29.10;;;;;;4999536;28;20519;-60
2021/04/07 07:33:19;;;;;;;6.00;2.47;;;15.30;18.90;;;;;;5000317;28;20235;-62
2021/04/07 07:35:45;;;;;;;3.87;1.80;;;11.30;25.80;;;;;;5009285;28;20616;-62
2021/04/07 07:38:11;;;;;;;3.37;1.70;;;15.30;25.50;;;;;;4994568;28;20218;-62
2021/04/07 07:40:37;;;;;;;2.00;1.40;;;17.70;25.20;;;;;;4999599;28;20214;-62
2021/04/07 07:43:03;;;;;;;1.50;1.30;;;19.10;24.70;;;;;;5000548;28;20302;-63
2021/04/07 07:45:29;;;;;;;1.60;1.20;;;19.90;24.30;;;;;;4998786;28;20620;-62
2021/04/07 07:47:55;;;;;;;1.30;1.20;;;20.50;24.20;;;;;;5009694;28;20685;-62
2021/04/07 07:50:21;;;;;;;1.40;1.10;;;20.80;24.20;;;;;;5010653;28;20212;-60
2021/04/07 07:52:48;;;;;;;2.23;1.13;;;21.10;24.40;;;;;;5008070;28;20710;-62
2021/04/07 07:55:14;;;;;;;2.30;1.17;;;21.30;24.60;;;;;;5009452;28;20729;-63
2021/04/07 07:57:40;;;;;;;1.93;1.20;;;21.40;24.70;;;;;;5009813;28;20206;-62
2021/04/07 08:00:06;;;;;;;1.20;1.00;;;21.50;24.90;;;;;;5002653;28;20684;-62
2021/04/07 08:02:32;;;;;;;6.07;1.27;;;21.70;25.20;;;;;;5006627;28;20222;-63
2021/04/07 08:04:58;;;;;;;2.27;1.23;;;21.80;25.30;;;;;;5006872;28;20230;-63
2021/04/07 08:07:24;;;;;;;2.10;1.10;;;21.90;25.50;;;;;;5000725;28;20230;-62
2021/04/07 08:09:50;;;;;;;2.53;1.00;;;22.10;25.60;;;;;;5005884;28;20203;-61
2021/04/07 08:12:16;;;;;;;2.70;1.10;;;22.10;25.60;;;;;;5000385;28;20322;-65
2021/04/07 08:14:42;;;;;;;2.47;1.10;;;22.10;25.60;;;;;;5008308;28;20688;-63
2021/04/07 08:17:08;;;;;;;2.77;1.00;;;22.20;25.80;;;;;;5007309;28;20211;-60
2021/04/07 08:19:34;;;;;;;0.83;0.83;;;22.20;26.00;;;;;;4994009;28;20275;-51
2021/04/07 08:22:00;;;;;;;2.30;1.20;;;22.30;26.10;;;;;;5009760;28;20662;-63
2021/04/07 08:24:26;;;;;;;1.97;1.03;;;22.30;26.30;;;;;;5008443;28;20275;-68
2021/04/07 08:26:52;;;;;;;2.93;1.10;;;22.30;26.20;;;;;;5007436;28;20211;-67
2021/04/07 08:29:18;;;;;;;1.47;0.90;;;22.20;26.10;;;;;;5006428;28;20209;-63
2021/04/07 08:31:44;;;;;;;2.90;1.17;;;22.30;26.10;;;;;;5005037;28;20213;-64
2021/04/07 08:34:10;;;;;;;1.17;0.90;;;22.30;26.30;;;;;;4996693;28;20586;-64
2021/04/07 08:36:36;;;;;;;1.03;0.90;;;22.30;26.50;;;;;;5005354;28;20310;-63
2021/04/07 08:39:02;;;;;;;3.53;1.20;;;22.40;26.60;;;;;;5006373;28;20680;-65
2021/04/07 08:41:28;;;;;;;11.73;2.17;;;22.30;26.70;;;;;;5009442;28;20219;-62
2021/04/07 08:43:54;;;;;;;0.97;0.93;;;22.40;26.70;;;;;;5009145;28;20372;-68
2021/04/07 08:46:23;;;;;;;0.93;0.90;;;22.30;26.60;;;;;;5008510;28;20671;-67
2021/04/07 08:48:49;;;;;;;0.80;0.80;;;22.30;26.50;;;;;;5007006;28;20209;-65
2021/04/07 08:51:16;;;;;;;1.67;0.90;;;22.30;26.40;;;;;;5011737;28;20197;-67
2021/04/07 08:53:42;;;;;;;1.40;1.10;;;22.30;26.40;;;;;;5011874;28;20324;-65
2021/04/07 08:56:08;;;;;;;3.83;0.90;;;22.30;26.40;;;;;;5011693;28;20259;-60
2021/04/07 08:58:34;;;;;;;1.37;0.80;;;22.40;26.50;;;;;;5013125;28;20204;-66
2021/04/07 09:01:00;;;;;;;2.13;1.00;;;22.40;26.60;;;;;;5012927;28;20210;-68
2021/04/07 09:03:25;;;;;;;1.37;1.13;;;22.40;26.70;;;;;;5011858;28;20545;-59
2021/04/07 09:05:52;;;;;;;2.37;1.47;;;22.40;26.80;;;;;;5012717;28;20205;-64
2021/04/07 09:08:18;;;;;;;1.50;1.10;;;22.40;26.90;;;;;;5013276;28;20274;-65
2021/04/07 09:10:44;;;;;;;4.53;1.23;;;22.50;27.10;;;;;;5010265;28;20202;-66
2021/04/07 09:13:10;;;;;;;2.07;1.10;;;22.40;26.90;;;;;;5012525;28;20616;-69
2021/04/07 09:15:36;;;;;;;3.50;1.17;;;22.40;27.00;;;;;;5004840;28;20206;-70
2021/04/07 09:18:02;;;;;;;1.10;0.93;;;22.40;27.10;;;;;;5002907;28;20522;-60
2021/04/07 09:20:28;;;;;;;2.80;1.20;;;22.40;27.30;;;;;;5012213;28;20230;-62
2021/04/07 09:22:54;;;;;;;1.50;1.10;;;22.40;27.40;;;;;;5005674;28;20217;-64
2021/04/07 09:25:21;;;;;;;1.57;0.90;;;22.40;27.30;;;;;;5011251;28;20267;-61
2021/04/07 09:27:47;;;;;;;1.00;0.90;;;22.40;27.30;;;;;;5012062;28;20282;-61
2021/04/07 09:30:13;;;;;;;2.37;1.43;;;22.40;27.20;;;;;;5011519;28;20214;-66
2021/04/07 09:32:39;;;;;;;3.27;1.43;;;22.50;27.30;;;;;;5012569;28;20260;-59
2021/04/07 09:35:05;;;;;;;1.80;1.13;;;22.50;27.70;;;;;;5007267;28;20331;-62
2021/04/07 09:37:31;;;;;;;3.37;1.10;;;22.60;27.80;;;;;;5003452;28;20274;-62
2021/04/07 09:39:57;;;;;;;4.30;1.53;;;22.60;27.70;;;;;;5012421;28;20211;-62
2021/04/07 09:42:23;;;;;;;5.10;1.30;;;22.60;27.70;;;;;;5013925;28;20204;-62
2021/04/07 09:44:49;;;;;;;1.07;0.90;;;22.50;27.70;;;;;;5013903;28;20227;-62
2021/04/07 09:47:15;;;;;;;1.90;1.00;;;22.50;27.70;;;;;;5013635;28;20206;-62
2021/04/07 09:49:41;;;;;;;2.67;1.20;;;22.50;27.70;;;;;;5014009;28;20214;-62
2021/04/07 09:52:07;;;;;;;1.20;1.07;;;22.50;27.70;;;;;;5014109;28;20663;-61
2021/04/07 09:54:35;;;;;;;3.23;1.30;;;22.50;27.70;;;;;;5013872;28;20237;-62
2021/04/07 09:57:01;;;;;;;2.10;1.00;;;22.50;27.70;;;;;;5003134;28;20220;-62
2021/04/07 09:59:27;;;;;;;1.50;1.13;;;22.50;27.50;;;;;;5012907;28;20675;-62
2021/04/07 10:01:53;;;;;;;1.90;1.10;;;22.50;27.70;;;;;;5012886;28;20288;-62
2021/04/07 10:04:19;;;;;;;2.17;1.00;;;22.50;27.70;;;;;;5013334;28;20234;-63
2021/04/07 10:06:45;;;;;;;3.07;1.10;;;22.50;27.70;;;;;;5013568;28;20730;-62
2021/04/07 10:09:11;;;;;;;1.83;1.40;;;22.50;27.70;;;;;;5013174;28;20261;-62
2021/04/07 10:11:37;;;;;;;1.43;1.10;;;22.50;27.40;;;;;;5009290;28;20210;-62
2021/04/07 10:14:03;;;;;;;3.43;1.37;;;22.40;27.40;;;;;;5002374;28;20685;-71
2021/04/07 10:16:29;;;;;;;1.77;1.10;;;22.40;27.60;;;;;;5008714;28;20202;-61
2021/04/07 10:18:55;;;;;;;2.03;1.10;;;22.40;27.40;;;;;;5009125;28;20209;-60
2021/04/07 10:21:21;;;;;;;1.77;1.20;;;22.40;27.60;;;;;;5006933;28;20237;-60
2021/04/07 10:23:47;;;;;;;1.77;1.03;;;22.40;27.60;;;;;;5008355;28;20578;-60
2021/04/07 10:26:13;;;;;;;1.43;1.10;;;22.50;28.00;;;;;;5010685;28;20205;-60
2021/04/07 10:28:39;;;;;;;2.53;1.30;;;22.50;27.90;;;;;;5008218;28;20261;-61
2021/04/07 10:31:05;;;;;;;3.10;1.27;;;22.50;28.00;;;;;;5011601;28;20208;-59
2021/04/07 10:33:31;;;;;;;2.13;1.07;;;22.50;28.10;;;;;;5010353;28;20694;-72
2021/04/07 10:35:57;;;;;;;1.33;1.07;;;22.60;27.80;;;;;;5003374;28;20210;-61
2021/04/07 10:38:23;;;;;;;19.53;3.60;;;22.60;27.80;;;;;;5005912;28;20211;-64
2021/04/07 10:40:49;;;;;;;2.60;1.40;;;22.60;29.90;;;;;;5004780;28;20204;-60
2021/04/07 10:43:15;;;;;;;2.87;1.50;;;22.70;28.70;;;;;;5011086;28;20706;-55
2021/04/07 10:45:41;;;;;;;5.77;2.00;;;22.60;28.40;;;;;;5010780;28;20210;-60
2021/04/07 10:48:07;;;;;;;3.83;1.10;;;22.60;28.40;;;;;;5003595;28;20217;-61
2021/04/07 10:50:33;;;;;;;6.67;1.57;;;22.60;28.70;;;;;;5000015;28;20671;-50
2021/04/07 10:52:59;;;;;;;1.70;1.10;;;22.60;28.90;;;;;;5007861;28;20233;-62
2021/04/07 10:55:25;;;;;;;1.73;1.27;;;22.50;28.80;;;;;;5008124;28;20213;-59
2021/04/07 10:57:51;;;;;;;3.93;1.67;;;22.60;29.00;;;;;;5008154;28;20214;-61
2021/04/07 11:00:17;;;;;;;4.20;1.43;;;22.60;29.00;;;;;;5008212;28;20210;-63
2021/04/07 11:02:43;;;;;;;7.30;2.13;;;22.60;28.80;;;;;;5008972;28;20246;-62
2021/04/07 11:05:09;;;;;;;2.83;1.30;;;22.70;28.90;;;;;;5009043;28;20206;-62
2021/04/07 11:07:35;;;;;;;1.57;1.20;;;22.70;28.80;;;;;;5009784;28;20210;-62
2021/04/07 11:10:01;;;;;;;2.10;1.40;;;22.70;28.70;;;;;;5005772;28;20263;-62
2021/04/07 11:12:27;;;;;;;2.07;1.30;;;22.70;28.60;;;;;;5004512;28;20225;-63
2021/04/07 11:14:53;;;;;;;3.47;2.40;;;22.70;28.70;;;;;;5008888;28;20555;-62
2021/04/07 11:17:19;;;;;;;7.00;2.90;;;22.70;28.60;;;;;;5008530;28;20210;-62
2021/04/07 11:19:45;;;;;;;15.87;8.63;;;22.70;28.50;;;;;;5009174;28;20205;-61
2021/04/07 11:22:11;;;;;;;24.30;14.20;;;22.70;28.80;;;;;;5010200;28;20272;-62
2021/04/07 11:24:37;;;;;;;39.23;26.53;;;22.70;28.90;;;;;;5009131;28;20680;-62
2021/04/07 11:27:03;;;;;;;80.30;51.40;;;22.70;29.10;;;;;;5010397;28;20213;-62
2021/04/07 11:29:29;;;;;;;140.77;86.27;;;22.70;29.00;;;;;;4991802;28;20205;-62
2021/04/07 11:31:56;;;;;;;174.43;110.20;;;22.70;29.30;;;;;;5002615;28;20202;-62
2021/04/07 11:34:28;;;;;;;172.63;110.03;;;22.70;29.30;;;;;;5008750;28;20245;-63
2021/04/07 11:37:06;;;;;;;163.40;104.57;;;22.70;29.50;;;;;;5007932;28;20670;-62
2021/04/07 11:39:36;;;;;;;159.53;103.90;;;22.70;29.30;;;;;;5006880;28;20234;-61
2021/04/07 11:42:07;;;;;;;152.60;97.97;;;22.70;29.50;;;;;;5007818;28;20207;-62
2021/04/07 11:44:33;;;;;;;153.00;94.33;;;22.70;29.60;;;;;;5007700;28;20221;-62
2021/04/07 11:47:00;;;;;;;151.23;95.43;;;22.70;29.70;;;;;;5009281;28;20210;-62
2021/04/07 11:49:25;;;;;;;144.33;92.30;;;22.70;29.40;;;;;;5010071;28;20210;-62
2021/04/07 11:51:52;;;;;;;139.93;91.80;;;22.70;29.40;;;;;;5009286;28;20215;-63
2021/04/07 11:54:18;;;;;;;143.40;89.67;;;22.70;29.30;;;;;;5005321;28;20321;-62
2021/04/07 11:56:44;;;;;;;115.90;71.50;;;22.70;29.60;;;;;;5005377;28;20634;-62
2021/04/07 11:59:10;;;;;;;101.93;65.03;;;22.60;28.30;;;;;;5009961;28;20212;-62
2021/04/07 12:01:36;;;;;;;114.13;70.67;;;22.50;27.70;;;;;;5002868;28;20210;-61
2021/04/07 12:04:02;;;;;;;109.70;71.10;;;22.60;28.30;;;;;;4996514;28;20233;-61
2021/04/07 12:06:28;;;;;;;109.93;67.37;;;22.60;28.60;;;;;;5002860;28;20300;-62
2021/04/07 12:08:54;;;;;;;105.67;65.60;;;22.60;28.60;;;;;;5009438;28;20534;-62
2021/04/07 12:11:20;;;;;;;109.00;65.93;;;22.60;28.60;;;;;;5006037;28;20231;-62
2021/04/07 12:13:46;;;;;;;105.40;64.43;;;22.60;28.50;;;;;;5008791;28;20238;-61
2021/04/07 12:16:12;;;;;;;98.90;61.60;;;22.70;28.60;;;;;;5007093;28;20206;-61
2021/04/07 12:18:38;;;;;;;103.30;63.17;;;22.70;28.70;;;;;;5005910;28;20216;-61
2021/04/07 12:21:04;;;;;;;102.30;60.30;;;22.70;28.70;;;;;;5002751;28;20205;-62
2021/04/07 12:23:30;;;;;;;94.43;57.88;;;22.70;28.80;;;;;;5008982;28;20233;-61
2021/04/07 12:25:56;;;;;;;94.03;55.90;;;22.70;28.70;;;;;;5008123;28;20211;-59
2021/04/07 12:28:23;;;;;;;87.27;53.97;;;22.70;28.60;;;;;;5007035;28;20271;-61
2021/04/07 12:30:49;;;;;;;85.50;52.60;;;22.70;28.70;;;;;;5005725;28;20332;-62
2021/04/07 12:33:15;;;;;;;82.23;52.40;;;22.70;28.60;;;;;;5008772;28;20246;-62
2021/04/07 12:35:41;;;;;;;84.60;51.33;;;22.70;28.70;;;;;;5000825;28;20686;-60